sensor_id;sensor_type;location;lat;lon;timestamp;pressure;altitude;pressure_sealevel;temperature;humidity
79075;BME280;68476;42.710;23.388;2023-05-29T00:01:25;95389.38;;;12.27;85.21
79075;BME280;68476;42.710;23.388;2023-05-29T00:03:51;95388.78;;;12.25;85.71
79075;BME280;68476;42.710;23.388;2023-05-29T00:06:16;95389.00;;;12.06;86.71
79075;BME280;68476;42.710;23.388;2023-05-29T00:08:42;95404.31;;;12.07;86.84
79075;BME280;68476;42.710;23.388;2023-05-29T00:11:07;95398.84;;;12.07;85.80
79075;BME280;68476;42.710;23.388;2023-05-29T00:13:33;95395.41;;;12.00;85.27
79075;BME280;68476;42.710;23.388;2023-05-29T00:15:58;95401.25;;;12.04;87.06
79075;BME280;68476;42.710;23.388;2023-05-29T00:18:25;95400.88;;;12.00;87.08
79075;BME280;68476;42.710;23.388;2023-05-29T00:20:52;95404.06;;;11.97;86.81
79075;BME280;68476;42.710;23.388;2023-05-29T00:23:18;95399.22;;;11.87;87.83
79075;BME280;68476;42.710;23.388;2023-05-29T00:25:43;95394.38;;;11.77;88.88
79075;BME280;68476;42.710;23.388;2023-05-29T00:28:09;95396.28;;;11.77;88.35
79075;BME280;68476;42.710;23.388;2023-05-29T00:30:35;95391.06;;;11.75;88.16
79075;BME280;68476;42.710;23.388;2023-05-29T00:33:00;95391.19;;;11.68;88.18
79075;BME280;68476;42.710;23.388;2023-05-29T00:35:26;95388.47;;;11.56;89.12
79075;BME280;68476;42.710;23.388;2023-05-29T00:37:52;95389.91;;;11.47;88.98
79075;BME280;68476;42.710;23.388;2023-05-29T00:40:17;95387.44;;;11.46;88.34
79075;BME280;68476;42.710;23.388;2023-05-29T00:42:43;95390.03;;;11.52;90.40
79075;BME280;68476;42.710;23.388;2023-05-29T00:45:09;95388.38;;;11.51;88.91
79075;BME280;68476;42.710;23.388;2023-05-29T00:47:34;95388.72;;;11.43;90.21
79075;BME280;68476;42.710;23.388;2023-05-29T00:50:01;95390.75;;;11.24;88.98
79075;BME280;68476;42.710;23.388;2023-05-29T00:52:27;95387.91;;;11.19;89.41
79075;BME280;68476;42.710;23.388;2023-05-29T00:54:54;95391.00;;;11.10;91.39
79075;BME280;68476;42.710;23.388;2023-05-29T00:57:20;95394.19;;;11.07;90.78
79075;BME280;68476;42.710;23.388;2023-05-29T00:59:47;95394.91;;;11.03;90.65
79075;BME280;68476;42.710;23.388;2023-05-29T01:02:13;95393.38;;;10.95;89.62
79075;BME280;68476;42.710;23.388;2023-05-29T01:04:39;95389.56;;;10.96;89.27
79075;BME280;68476;42.710;23.388;2023-05-29T01:07:05;95385.78;;;11.09;89.99
79075;BME280;68476;42.710;23.388;2023-05-29T01:09:32;95380.47;;;11.14;90.61
79075;BME280;68476;42.710;23.388;2023-05-29T01:20:42;95386.22;;;10.58;91.85
79075;BME280;68476;42.710;23.388;2023-05-29T01:28:32;95395.09;;;10.66;92.30
79075;BME280;68476;42.710;23.388;2023-05-29T01:30:59;95388.78;;;10.65;91.03
79075;BME280;68476;42.710;23.388;2023-05-29T01:33:26;95392.03;;;10.74;90.98
79075;BME280;68476;42.710;23.388;2023-05-29T01:35:52;95393.22;;;10.78;91.84
79075;BME280;68476;42.710;23.388;2023-05-29T01:38:18;95381.88;;;10.81;93.01
79075;BME280;68476;42.710;23.388;2023-05-29T01:40:43;95394.28;;;10.89;91.47
79075;BME280;68476;42.710;23.388;2023-05-29T01:43:09;95388.84;;;10.77;91.41
79075;BME280;68476;42.710;23.388;2023-05-29T01:45:36;95392.03;;;10.74;90.65
79075;BME280;68476;42.710;23.388;2023-05-29T01:48:01;95386.56;;;10.74;90.67
79075;BME280;68476;42.710;23.388;2023-05-29T01:50:28;95382.94;;;10.80;91.01
79075;BME280;68476;42.710;23.388;2023-05-29T01:52:54;95381.38;;;10.84;92.76
79075;BME280;68476;42.710;23.388;2023-05-29T01:55:19;95377.13;;;10.88;92.49
79075;BME280;68476;42.710;23.388;2023-05-29T01:57:46;95376.53;;;10.86;91.72
79075;BME280;68476;42.710;23.388;2023-05-29T02:00:12;95376.88;;;10.90;92.55
79075;BME280;68476;42.710;23.388;2023-05-29T02:02:38;95379.13;;;10.93;93.26
79075;BME280;68476;42.710;23.388;2023-05-29T02:05:05;95379.84;;;11.00;93.46
79075;BME280;68476;42.710;23.388;2023-05-29T02:07:30;95373.44;;;11.06;93.50
79075;BME280;68476;42.710;23.388;2023-05-29T02:09:56;95375.34;;;11.06;92.54
79075;BME280;68476;42.710;23.388;2023-05-29T02:12:21;95372.75;;;11.11;93.11
79075;BME280;68476;42.710;23.388;2023-05-29T02:14:47;95371.53;;;11.07;92.96
79075;BME280;68476;42.710;23.388;2023-05-29T02:17:12;95360.19;;;10.98;92.52
79075;BME280;68476;42.710;23.388;2023-05-29T02:19:37;95377.94;;;11.13;92.85
79075;BME280;68476;42.710;23.388;2023-05-29T02:22:03;95377.13;;;11.12;92.53
79075;BME280;68476;42.710;23.388;2023-05-29T02:24:28;95379.97;;;11.17;92.84
79075;BME280;68476;42.710;23.388;2023-05-29T02:26:54;95381.63;;;11.18;92.67
79075;BME280;68476;42.710;23.388;2023-05-29T02:29:19;95382.81;;;11.22;92.14
79075;BME280;68476;42.710;23.388;2023-05-29T02:31:45;95384.59;;;11.29;91.87
79075;BME280;68476;42.710;23.388;2023-05-29T02:34:11;95385.19;;;11.31;91.92
79075;BME280;68476;42.710;23.388;2023-05-29T02:36:36;95382.22;;;11.20;91.76
79075;BME280;68476;42.710;23.388;2023-05-29T02:39:04;95384.00;;;11.03;90.87
79075;BME280;68476;42.710;23.388;2023-05-29T02:41:30;95397.13;;;10.82;90.91
79075;BME280;68476;42.710;23.388;2023-05-29T02:43:56;95394.03;;;10.67;91.20
79075;BME280;68476;42.710;23.388;2023-05-29T02:46:21;95393.91;;;10.61;90.77
79075;BME280;68476;42.710;23.388;2023-05-29T02:48:47;95391.13;;;11.04;92.23
79075;BME280;68476;42.710;23.388;2023-05-29T02:51:12;95392.53;;;11.18;91.73
79075;BME280;68476;42.710;23.388;2023-05-29T02:53:38;95379.47;;;10.97;90.46
79075;BME280;68476;42.710;23.388;2023-05-29T02:56:04;95383.66;;;10.99;92.34
79075;BME280;68476;42.710;23.388;2023-05-29T02:58:29;95378.06;;;11.06;92.38
79075;BME280;68476;42.710;23.388;2023-05-29T03:00:55;95386.03;;;11.07;92.17
79075;BME280;68476;42.710;23.388;2023-05-29T03:03:20;95383.50;;;11.06;91.21
79075;BME280;68476;42.710;23.388;2023-05-29T03:05:46;95383.16;;;10.90;90.35
79075;BME280;68476;42.710;23.388;2023-05-29T03:08:12;95388.47;;;10.85;91.01
79075;BME280;68476;42.710;23.388;2023-05-29T03:10:37;95385.66;;;10.80;91.34
79075;BME280;68476;42.710;23.388;2023-05-29T03:13:03;95390.34;;;10.73;92.00
79075;BME280;68476;42.710;23.388;2023-05-29T03:15:28;95380.31;;;10.85;92.63
79075;BME280;68476;42.710;23.388;2023-05-29T03:17:54;95388.28;;;11.10;91.84
79075;BME280;68476;42.710;23.388;2023-05-29T03:20:20;95394.19;;;11.19;91.14
79075;BME280;68476;42.710;23.388;2023-05-29T03:22:45;95389.13;;;11.23;91.47
79075;BME280;68476;42.710;23.388;2023-05-29T03:25:11;95395.16;;;11.37;91.27
79075;BME280;68476;42.710;23.388;2023-05-29T03:27:36;95404.66;;;11.34;90.76
79075;BME280;68476;42.710;23.388;2023-05-29T03:30:01;95400.72;;;11.30;90.41
79075;BME280;68476;42.710;23.388;2023-05-29T03:32:28;95398.09;;;11.12;90.22
79075;BME280;68476;42.710;23.388;2023-05-29T03:34:53;95413.75;;;11.04;90.84
79075;BME280;68476;42.710;23.388;2023-05-29T03:37:18;95407.00;;;11.19;90.66
79075;BME280;68476;42.710;23.388;2023-05-29T03:39:44;95413.19;;;11.38;89.66
79075;BME280;68476;42.710;23.388;2023-05-29T03:42:09;95413.53;;;11.30;90.23
79075;BME280;68476;42.710;23.388;2023-05-29T03:44:35;95418.53;;;11.45;90.40
79075;BME280;68476;42.710;23.388;2023-05-29T03:47:00;95415.16;;;11.66;89.27
79075;BME280;68476;42.710;23.388;2023-05-29T03:49:25;95419.53;;;11.79;88.76
79075;BME280;68476;42.710;23.388;2023-05-29T03:51:51;95414.78;;;11.98;88.26
79075;BME280;68476;42.710;23.388;2023-05-29T03:54:16;95408.44;;;12.10;87.55
79075;BME280;68476;42.710;23.388;2023-05-29T03:56:42;95409.69;;;12.31;86.71
79075;BME280;68476;42.710;23.388;2023-05-29T03:59:08;95423.66;;;12.46;86.31
79075;BME280;68476;42.710;23.388;2023-05-29T04:01:33;95428.16;;;12.41;86.90
79075;BME280;68476;42.710;23.388;2023-05-29T04:03:59;95433.69;;;12.29;86.86
79075;BME280;68476;42.710;23.388;2023-05-29T04:06:24;95437.97;;;12.25;87.59
79075;BME280;68476;42.710;23.388;2023-05-29T04:08:50;95448.22;;;12.17;88.22
79075;BME280;68476;42.710;23.388;2023-05-29T04:11:15;95438.94;;;12.47;86.77
79075;BME280;68476;42.710;23.388;2023-05-29T04:13:41;95438.50;;;12.68;85.86
79075;BME280;68476;42.710;23.388;2023-05-29T04:16:07;95452.91;;;12.63;87.36
79075;BME280;68476;42.710;23.388;2023-05-29T04:18:32;95444.72;;;12.63;86.94
79075;BME280;68476;42.710;23.388;2023-05-29T04:20:58;95439.91;;;12.70;86.63
79075;BME280;68476;42.710;23.388;2023-05-29T04:23:23;95440.28;;;12.74;86.87
79075;BME280;68476;42.710;23.388;2023-05-29T04:25:49;95438.75;;;12.66;87.32
79075;BME280;68476;42.710;23.388;2023-05-29T04:28:16;95444.72;;;12.63;87.73
79075;BME280;68476;42.710;23.388;2023-05-29T04:30:42;95448.84;;;12.66;87.64
79075;BME280;68476;42.710;23.388;2023-05-29T04:33:07;95450.78;;;12.65;87.00
79075;BME280;68476;42.710;23.388;2023-05-29T04:35:34;95450.84;;;12.70;86.66
79075;BME280;68476;42.710;23.388;2023-05-29T04:38:00;95454.13;;;12.55;88.09
79075;BME280;68476;42.710;23.388;2023-05-29T04:40:26;95457.44;;;12.57;88.06
79075;BME280;68476;42.710;23.388;2023-05-29T04:42:51;95458.66;;;12.78;87.55
79075;BME280;68476;42.710;23.388;2023-05-29T04:45:19;95457.28;;;12.93;86.76
79075;BME280;68476;42.710;23.388;2023-05-29T04:47:46;95453.88;;;13.03;85.96
79075;BME280;68476;42.710;23.388;2023-05-29T04:50:12;95457.38;;;12.98;86.64
79075;BME280;68476;42.710;23.388;2023-05-29T04:52:38;95456.56;;;13.32;84.38
79075;BME280;68476;42.710;23.388;2023-05-29T04:55:04;95455.56;;;13.55;82.22
79075;BME280;68476;42.710;23.388;2023-05-29T04:57:30;95453.75;;;13.61;82.65
79075;BME280;68476;42.710;23.388;2023-05-29T04:59:55;95460.47;;;13.53;82.39
79075;BME280;68476;42.710;23.388;2023-05-29T05:02:21;95469.66;;;13.64;81.87
79075;BME280;68476;42.710;23.388;2023-05-29T05:04:46;95471.66;;;13.68;82.07
79075;BME280;68476;42.710;23.388;2023-05-29T05:07:12;95478.06;;;13.57;82.69
79075;BME280;68476;42.710;23.388;2023-05-29T05:09:38;95479.25;;;13.83;81.30
79075;BME280;68476;42.710;23.388;2023-05-29T05:12:03;95484.91;;;13.77;81.18
79075;BME280;68476;42.710;23.388;2023-05-29T05:14:29;95482.53;;;14.02;81.28
79075;BME280;68476;42.710;23.388;2023-05-29T05:16:54;95478.53;;;14.10;79.34
79075;BME280;68476;42.710;23.388;2023-05-29T05:19:20;95479.66;;;13.92;79.91
79075;BME280;68476;42.710;23.388;2023-05-29T05:21:45;95483.38;;;14.25;79.53
79075;BME280;68476;42.710;23.388;2023-05-29T05:24:11;95485.56;;;14.45;78.14
79075;BME280;68476;42.710;23.388;2023-05-29T05:26:36;95487.84;;;14.54;77.29
79075;BME280;68476;42.710;23.388;2023-05-29T05:29:02;95477.16;;;14.52;78.00
79075;BME280;68476;42.710;23.388;2023-05-29T05:31:27;95482.63;;;14.52;78.33
79075;BME280;68476;42.710;23.388;2023-05-29T05:33:52;95489.31;;;14.61;78.70
79075;BME280;68476;42.710;23.388;2023-05-29T05:36:18;95483.19;;;14.54;79.21
79075;BME280;68476;42.710;23.388;2023-05-29T05:38:43;95485.13;;;14.76;77.41
79075;BME280;68476;42.710;23.388;2023-05-29T05:41:09;95483.41;;;14.47;79.22
79075;BME280;68476;42.710;23.388;2023-05-29T05:43:35;95486.16;;;14.70;79.39
79075;BME280;68476;42.710;23.388;2023-05-29T05:46:00;95476.84;;;14.48;80.17
79075;BME280;68476;42.710;23.388;2023-05-29T05:48:26;95488.81;;;14.64;78.77
79075;BME280;68476;42.710;23.388;2023-05-29T05:50:51;95477.06;;;14.91;78.38
79075;BME280;68476;42.710;23.388;2023-05-29T05:53:16;95478.88;;;15.40;76.30
79075;BME280;68476;42.710;23.388;2023-05-29T05:55:42;95479.66;;;15.74;75.08
79075;BME280;68476;42.710;23.388;2023-05-29T05:58:08;95475.09;;;14.87;78.25
79075;BME280;68476;42.710;23.388;2023-05-29T06:00:33;95480.50;;;14.59;79.30
79075;BME280;68476;42.710;23.388;2023-05-29T06:02:59;95486.91;;;14.43;79.48
79075;BME280;68476;42.710;23.388;2023-05-29T06:05:25;95479.31;;;14.50;78.67
79075;BME280;68476;42.710;23.388;2023-05-29T06:07:51;95482.00;;;14.67;77.72
79075;BME280;68476;42.710;23.388;2023-05-29T06:10:17;95479.91;;;15.02;77.53
79075;BME280;68476;42.710;23.388;2023-05-29T06:12:42;95481.28;;;14.77;76.63
79075;BME280;68476;42.710;23.388;2023-05-29T06:15:08;95482.84;;;14.95;76.83
79075;BME280;68476;42.710;23.388;2023-05-29T06:17:33;95472.91;;;15.16;76.29
79075;BME280;68476;42.710;23.388;2023-05-29T06:20:00;95483.69;;;15.61;74.73
79075;BME280;68476;42.710;23.388;2023-05-29T06:22:26;95481.63;;;15.78;73.73
79075;BME280;68476;42.710;23.388;2023-05-29T06:24:52;95485.41;;;16.05;73.84
79075;BME280;68476;42.710;23.388;2023-05-29T06:27:17;95482.19;;;16.23;72.97
79075;BME280;68476;42.710;23.388;2023-05-29T06:29:44;95484.22;;;16.48;72.80
79075;BME280;68476;42.710;23.388;2023-05-29T06:32:10;95479.91;;;16.73;72.33
79075;BME280;68476;42.710;23.388;2023-05-29T06:34:35;95477.31;;;16.36;73.47
79075;BME280;68476;42.710;23.388;2023-05-29T06:37:01;95470.78;;;16.57;72.95
79075;BME280;68476;42.710;23.388;2023-05-29T06:39:26;95481.44;;;16.38;73.67
79075;BME280;68476;42.710;23.388;2023-05-29T06:41:51;95475.28;;;16.84;72.69
79075;BME280;68476;42.710;23.388;2023-05-29T06:44:17;95473.72;;;17.35;70.83
79075;BME280;68476;42.710;23.388;2023-05-29T06:46:42;95475.13;;;17.37;71.23
79075;BME280;68476;42.710;23.388;2023-05-29T06:49:08;95469.59;;;17.99;69.25
79075;BME280;68476;42.710;23.388;2023-05-29T06:51:33;95464.06;;;17.79;68.17
79075;BME280;68476;42.710;23.388;2023-05-29T06:53:58;95475.66;;;17.29;69.27
79075;BME280;68476;42.710;23.388;2023-05-29T06:56:24;95469.03;;;17.09;71.27
79075;BME280;68476;42.710;23.388;2023-05-29T06:58:51;95478.88;;;16.90;71.88
79075;BME280;68476;42.710;23.388;2023-05-29T07:01:16;95479.94;;;16.84;71.43
79075;BME280;68476;42.710;23.388;2023-05-29T07:03:42;95476.63;;;16.76;71.69
79075;BME280;68476;42.710;23.388;2023-05-29T07:06:07;95473.47;;;17.31;70.57
79075;BME280;68476;42.710;23.388;2023-05-29T07:08:33;95469.88;;;17.20;71.36
79075;BME280;68476;42.710;23.388;2023-05-29T07:10:59;95472.09;;;17.39;70.30
79075;BME280;68476;42.710;23.388;2023-05-29T07:13:25;95459.94;;;17.24;69.98
79075;BME280;68476;42.710;23.388;2023-05-29T07:15:51;95475.97;;;17.43;69.97
79075;BME280;68476;42.710;23.388;2023-05-29T07:18:16;95480.81;;;18.29;68.67
79075;BME280;68476;42.710;23.388;2023-05-29T07:20:42;95481.56;;;18.55;66.13
79075;BME280;68476;42.710;23.388;2023-05-29T07:23:07;95481.31;;;19.12;65.20
79075;BME280;68476;42.710;23.388;2023-05-29T07:25:32;95478.72;;;18.71;64.52
79075;BME280;68476;42.710;23.388;2023-05-29T07:27:58;95478.38;;;18.22;65.44
79075;BME280;68476;42.710;23.388;2023-05-29T07:30:23;95473.00;;;18.62;63.86
79075;BME280;68476;42.710;23.388;2023-05-29T07:32:49;95479.97;;;18.39;64.68
79075;BME280;68476;42.710;23.388;2023-05-29T07:35:14;95472.31;;;18.15;65.68
79075;BME280;68476;42.710;23.388;2023-05-29T07:37:40;95478.16;;;18.74;65.51
79075;BME280;68476;42.710;23.388;2023-05-29T07:40:05;95476.50;;;19.33;63.74
79075;BME280;68476;42.710;23.388;2023-05-29T07:42:34;95471.06;;;19.18;62.93
79075;BME280;68476;42.710;23.388;2023-05-29T07:44:59;95470.28;;;19.07;63.77
79075;BME280;68476;42.710;23.388;2023-05-29T07:47:25;95474.94;;;19.12;63.14
79075;BME280;68476;42.710;23.388;2023-05-29T07:49:50;95468.06;;;19.14;62.69
79075;BME280;68476;42.710;23.388;2023-05-29T07:52:17;95462.63;;;19.38;61.51
79075;BME280;68476;42.710;23.388;2023-05-29T07:54:42;95466.38;;;19.88;61.29
79075;BME280;68476;42.710;23.388;2023-05-29T07:57:08;95464.47;;;20.12;60.52
79075;BME280;68476;42.710;23.388;2023-05-29T07:59:36;95461.47;;;20.09;58.99
79075;BME280;68476;42.710;23.388;2023-05-29T08:02:02;95455.94;;;21.01;56.78
79075;BME280;68476;42.710;23.388;2023-05-29T08:04:29;95463.66;;;20.36;57.65
79075;BME280;68476;42.710;23.388;2023-05-29T08:06:54;95463.34;;;20.62;57.42
79075;BME280;68476;42.710;23.388;2023-05-29T08:09:20;95465.69;;;21.55;55.19
79075;BME280;68476;42.710;23.388;2023-05-29T08:11:46;95463.69;;;21.42;55.39
79075;BME280;68476;42.710;23.388;2023-05-29T08:14:13;95459.09;;;21.51;52.73
79075;BME280;68476;42.710;23.388;2023-05-29T08:16:38;95455.94;;;21.58;51.31
79075;BME280;68476;42.710;23.388;2023-05-29T08:19:04;95456.50;;;22.07;49.80
79075;BME280;68476;42.710;23.388;2023-05-29T08:21:30;95460.31;;;21.07;51.75
79075;BME280;68476;42.710;23.388;2023-05-29T08:23:57;95458.66;;;21.63;50.37
79075;BME280;68476;42.710;23.388;2023-05-29T08:26:22;95465.31;;;21.05;51.19
79075;BME280;68476;42.710;23.388;2023-05-29T08:28:48;95462.28;;;21.78;48.66
79075;BME280;68476;42.710;23.388;2023-05-29T08:31:13;95462.38;;;22.06;48.08
79075;BME280;68476;42.710;23.388;2023-05-29T08:33:39;95466.81;;;22.35;47.41
79075;BME280;68476;42.710;23.388;2023-05-29T08:36:05;95454.50;;;22.55;46.93
79075;BME280;68476;42.710;23.388;2023-05-29T08:38:30;95464.88;;;22.21;47.38
79075;BME280;68476;42.710;23.388;2023-05-29T08:40:56;95454.63;;;21.89;47.12
79075;BME280;68476;42.710;23.388;2023-05-29T08:43:27;95457.22;;;21.99;47.59
79075;BME280;68476;42.710;23.388;2023-05-29T08:45:54;95448.38;;;21.97;46.96
79075;BME280;68476;42.710;23.388;2023-05-29T08:48:24;95446.63;;;21.87;47.41
79075;BME280;68476;42.710;23.388;2023-05-29T08:50:53;95441.63;;;22.03;46.52
79075;BME280;68476;42.710;23.388;2023-05-29T08:53:19;95429.25;;;21.81;47.20
79075;BME280;68476;42.710;23.388;2023-05-29T08:55:47;95433.44;;;22.54;45.74
79075;BME280;68476;42.710;23.388;2023-05-29T08:58:18;95435.94;;;22.08;46.30
79075;BME280;68476;42.710;23.388;2023-05-29T09:00:48;95430.59;;;22.12;45.86
79075;BME280;68476;42.710;23.388;2023-05-29T09:03:14;95427.75;;;22.17;45.69
79075;BME280;68476;42.710;23.388;2023-05-29T09:05:40;95420.75;;;22.06;46.98
79075;BME280;68476;42.710;23.388;2023-05-29T09:08:09;95416.00;;;21.92;46.29
79075;BME280;68476;42.710;23.388;2023-05-29T09:10:43;95419.75;;;21.68;47.85
79075;BME280;68476;42.710;23.388;2023-05-29T09:13:10;95418.06;;;21.34;47.99
79075;BME280;68476;42.710;23.388;2023-05-29T09:15:36;95416.69;;;22.59;45.90
79075;BME280;68476;42.710;23.388;2023-05-29T09:18:05;95417.88;;;22.81;45.96
79075;BME280;68476;42.710;23.388;2023-05-29T09:20:31;95417.69;;;22.35;45.97
79075;BME280;68476;42.710;23.388;2023-05-29T09:23:01;95417.22;;;22.98;44.75
79075;BME280;68476;42.710;23.388;2023-05-29T09:25:29;95419.91;;;23.03;44.11
79075;BME280;68476;42.710;23.388;2023-05-29T09:28:03;95412.31;;;23.31;43.43
79075;BME280;68476;42.710;23.388;2023-05-29T09:30:38;95405.19;;;22.52;45.04
79075;BME280;68476;42.710;23.388;2023-05-29T09:33:05;95401.13;;;22.72;44.35
79075;BME280;68476;42.710;23.388;2023-05-29T09:35:36;95407.31;;;23.19;43.26
79075;BME280;68476;42.710;23.388;2023-05-29T09:38:03;95405.56;;;23.23;43.90
79075;BME280;68476;42.710;23.388;2023-05-29T09:40:30;95396.56;;;23.72;43.18
79075;BME280;68476;42.710;23.388;2023-05-29T09:42:55;95388.13;;;23.32;44.39
79075;BME280;68476;42.710;23.388;2023-05-29T09:45:21;95389.56;;;23.29;43.97
79075;BME280;68476;42.710;23.388;2023-05-29T09:47:47;95383.50;;;23.50;43.63
79075;BME280;68476;42.710;23.388;2023-05-29T09:50:20;95377.56;;;23.43;43.03
79075;BME280;68476;42.710;23.388;2023-05-29T09:52:48;95379.47;;;24.10;41.99
79075;BME280;68476;42.710;23.388;2023-05-29T09:55:18;95380.72;;;24.04;41.03
79075;BME280;68476;42.710;23.388;2023-05-29T09:57:47;95383.13;;;23.43;42.21
79075;BME280;68476;42.710;23.388;2023-05-29T10:00:17;95377.63;;;23.29;41.65
79075;BME280;68476;42.710;23.388;2023-05-29T10:02:42;95379.53;;;24.28;42.42
79075;BME280;68476;42.710;23.388;2023-05-29T10:05:08;95378.25;;;23.26;43.53
79075;BME280;68476;42.710;23.388;2023-05-29T10:07:36;95370.81;;;23.35;42.08
79075;BME280;68476;42.710;23.388;2023-05-29T10:10:03;95375.59;;;23.66;41.84
79075;BME280;68476;42.710;23.388;2023-05-29T10:12:44;95369.94;;;24.11;40.64
79075;BME280;68476;42.710;23.388;2023-05-29T10:15:14;95366.03;;;23.81;40.38
79075;BME280;68476;42.710;23.388;2023-05-29T10:17:49;95367.56;;;24.76;40.27
79075;BME280;68476;42.710;23.388;2023-05-29T10:20:17;95376.88;;;23.91;40.92
79075;BME280;68476;42.710;23.388;2023-05-29T10:22:46;95355.88;;;23.85;40.80
79075;BME280;68476;42.710;23.388;2023-05-29T10:25:13;95369.44;;;23.78;41.50
79075;BME280;68476;42.710;23.388;2023-05-29T10:27:41;95360.00;;;24.68;39.19
79075;BME280;68476;42.710;23.388;2023-05-29T10:35:57;95359.03;;;22.78;43.30
79075;BME280;68476;42.710;23.388;2023-05-29T10:38:26;95368.03;;;22.61;43.91
79075;BME280;68476;42.710;23.388;2023-05-29T10:40:52;95356.22;;;25.78;37.35
79075;BME280;68476;42.710;23.388;2023-05-29T10:45:55;95350.19;;;28.89;30.92
79075;BME280;68476;42.710;23.388;2023-05-29T10:50:54;95348.63;;;29.57;30.55
79075;BME280;68476;42.710;23.388;2023-05-29T10:53:24;95340.75;;;29.22;30.19
79075;BME280;68476;42.710;23.388;2023-05-29T10:55:51;95330.78;;;29.37;28.53
79075;BME280;68476;42.710;23.388;2023-05-29T10:58:21;95327.22;;;25.35;36.35
79075;BME280;68476;42.710;23.388;2023-05-29T11:00:52;95332.16;;;24.86;37.47
79075;BME280;68476;42.710;23.388;2023-05-29T11:03:41;95334.19;;;23.64;40.16
79075;BME280;68476;42.710;23.388;2023-05-29T11:06:17;95328.97;;;23.72;39.79
79075;BME280;68476;42.710;23.388;2023-05-29T11:08:55;95324.31;;;23.90;40.69
79075;BME280;68476;42.710;23.388;2023-05-29T11:13:53;95317.47;;;27.05;32.71
79075;BME280;68476;42.710;23.388;2023-05-29T11:18:54;95314.13;;;24.74;37.76
79075;BME280;68476;42.710;23.388;2023-05-29T11:24:01;95307.59;;;26.57;33.48
79075;BME280;68476;42.710;23.388;2023-05-29T11:26:32;95311.59;;;27.74;30.59
79075;BME280;68476;42.710;23.388;2023-05-29T11:29:02;95305.09;;;29.63;28.28
79075;BME280;68476;42.710;23.388;2023-05-29T11:31:31;95305.63;;;28.34;30.00
79075;BME280;68476;42.710;23.388;2023-05-29T11:34:02;95316.00;;;24.30;39.18
79075;BME280;68476;42.710;23.388;2023-05-29T11:36:31;95315.28;;;23.44;40.70
79075;BME280;68476;42.710;23.388;2023-05-29T11:38:58;95321.88;;;24.37;39.69
79075;BME280;68476;42.710;23.388;2023-05-29T11:41:23;95315.91;;;24.70;39.30
79075;BME280;68476;42.710;23.388;2023-05-29T11:44:01;95315.53;;;23.65;41.08
79075;BME280;68476;42.710;23.388;2023-05-29T11:46:28;95320.06;;;23.29;42.15
79075;BME280;68476;42.710;23.388;2023-05-29T11:48:58;95312.94;;;23.37;41.87
79075;BME280;68476;42.710;23.388;2023-05-29T11:51:24;95328.84;;;22.35;45.57
79075;BME280;68476;42.710;23.388;2023-05-29T11:53:50;95327.44;;;22.10;49.04
79075;BME280;68476;42.710;23.388;2023-05-29T11:56:18;95332.38;;;21.85;49.71
79075;BME280;68476;42.710;23.388;2023-05-29T11:58:44;95339.06;;;21.51;50.50
79075;BME280;68476;42.710;23.388;2023-05-29T12:01:10;95342.31;;;21.39;50.59
79075;BME280;68476;42.710;23.388;2023-05-29T12:03:41;95346.44;;;20.89;55.44
79075;BME280;68476;42.710;23.388;2023-05-29T12:06:11;95361.28;;;20.36;57.80
79075;BME280;68476;42.710;23.388;2023-05-29T12:08:38;95357.84;;;19.71;60.57
79075;BME280;68476;42.710;23.388;2023-05-29T12:11:04;95367.22;;;19.46;60.82
79075;BME280;68476;42.710;23.388;2023-05-29T12:13:29;95359.72;;;19.52;59.62
79075;BME280;68476;42.710;23.388;2023-05-29T12:15:57;95355.94;;;19.43;57.88
79075;BME280;68476;42.710;23.388;2023-05-29T12:18:31;95364.69;;;18.81;55.09
79075;BME280;68476;42.710;23.388;2023-05-29T12:20:58;95356.63;;;18.89;55.29
79075;BME280;68476;42.710;23.388;2023-05-29T12:23:24;95364.94;;;19.24;56.22
79075;BME280;68476;42.710;23.388;2023-05-29T12:25:51;95369.44;;;19.44;54.82
79075;BME280;68476;42.710;23.388;2023-05-29T12:28:18;95364.59;;;19.31;55.67
79075;BME280;68476;42.710;23.388;2023-05-29T12:30:44;95365.28;;;19.47;56.80
79075;BME280;68476;42.710;23.388;2023-05-29T12:33:31;95361.81;;;19.36;54.77
79075;BME280;68476;42.710;23.388;2023-05-29T12:36:05;95355.88;;;19.48;54.49
79075;BME280;68476;42.710;23.388;2023-05-29T12:38:32;95355.50;;;19.89;53.03
79075;BME280;68476;42.710;23.388;2023-05-29T12:40:57;95348.94;;;20.47;52.59
79075;BME280;68476;42.710;23.388;2023-05-29T12:43:22;95333.31;;;25.02;40.52
79075;BME280;68476;42.710;23.388;2023-05-29T12:45:54;95345.69;;;27.13;37.42
79075;BME280;68476;42.710;23.388;2023-05-29T12:48:20;95337.50;;;26.86;37.19
79075;BME280;68476;42.710;23.388;2023-05-29T12:50:48;95335.22;;;27.43;35.06
79075;BME280;68476;42.710;23.388;2023-05-29T12:53:15;95328.25;;;28.29;34.55
79075;BME280;68476;42.710;23.388;2023-05-29T12:55:43;95327.22;;;29.81;33.91
79075;BME280;68476;42.710;23.388;2023-05-29T12:58:10;95324.88;;;27.77;36.79
79075;BME280;68476;42.710;23.388;2023-05-29T13:00:38;95331.16;;;28.20;36.06
79075;BME280;68476;42.710;23.388;2023-05-29T13:03:04;95337.03;;;27.94;36.23
79075;BME280;68476;42.710;23.388;2023-05-29T13:05:30;95329.78;;;27.80;36.81
79075;BME280;68476;42.710;23.388;2023-05-29T13:07:56;95326.50;;;28.37;35.35
79075;BME280;68476;42.710;23.388;2023-05-29T13:10:22;95324.75;;;28.20;35.55
79075;BME280;68476;42.710;23.388;2023-05-29T13:12:48;95322.97;;;28.65;34.54
79075;BME280;68476;42.710;23.388;2023-05-29T13:15:19;95320.69;;;29.08;34.56
79075;BME280;68476;42.710;23.388;2023-05-29T13:17:44;95324.88;;;28.73;34.39
79075;BME280;68476;42.710;23.388;2023-05-29T13:20:11;95320.03;;;28.98;33.72